sensor_id;sensor_type;location;lat;lon;timestamp;temperature;humidity
41922;DHT22;27609;51.002;5.354;2022-12-07T00:01:34;6.20;99.90
41922;DHT22;27609;51.002;5.354;2022-12-07T00:04:01;6.10;99.90
41922;DHT22;27609;51.002;5.354;2022-12-07T00:06:42;6.10;99.90
41922;DHT22;27609;51.002;5.354;2022-12-07T00:09:15;6.30;99.90
41922;DHT22;27609;51.002;5.354;2022-12-07T00:11:42;7.10;99.90
41922;DHT22;27609;51.002;5.354;2022-12-07T00:14:11;6.20;99.90
41922;DHT22;27609;51.002;5.354;2022-12-07T00:16:37;6.20;99.90
41922;DHT22;27609;51.002;5.354;2022-12-07T00:19:04;6.30;99.90
41922;DHT22;27609;51.002;5.354;2022-12-07T00:21:32;6.30;99.90
41922;DHT22;27609;51.002;5.354;2022-12-07T00:23:58;6.30;99.90
41922;DHT22;27609;51.002;5.354;2022-12-07T00:26:27;6.30;99.90
41922;DHT22;27609;51.002;5.354;2022-12-07T00:28:56;6.30;99.90
41922;DHT22;27609;51.002;5.354;2022-12-07T00:31:25;6.90;99.90
41922;DHT22;27609;51.002;5.354;2022-12-07T00:33:51;6.40;99.90
41922;DHT22;27609;51.002;5.354;2022-12-07T00:36:19;6.40;99.90
41922;DHT22;27609;51.002;5.354;2022-12-07T00:38:45;6.30;99.90
41922;DHT22;27609;51.002;5.354;2022-12-07T00:41:16;6.50;99.90
41922;DHT22;27609;51.002;5.354;2022-12-07T00:43:43;6.60;99.90
41922;DHT22;27609;51.002;5.354;2022-12-07T00:46:10;6.70;99.90
41922;DHT22;27609;51.002;5.354;2022-12-07T00:48:36;6.30;99.90
41922;DHT22;27609;51.002;5.354;2022-12-07T00:51:03;6.10;99.90
41922;DHT22;27609;51.002;5.354;2022-12-07T00:53:29;6.00;99.90
41922;DHT22;27609;51.002;5.354;2022-12-07T00:55:55;6.00;99.90
41922;DHT22;27609;51.002;5.354;2022-12-07T00:58:22;6.00;99.90
41922;DHT22;27609;51.002;5.354;2022-12-07T01:00:48;6.00;99.90
41922;DHT22;27609;51.002;5.354;2022-12-07T01:03:15;6.10;99.90
41922;DHT22;27609;51.002;5.354;2022-12-07T01:05:52;6.10;99.90
41922;DHT22;27609;51.002;5.354;2022-12-07T01:08:19;6.10;99.90
41922;DHT22;27609;51.002;5.354;2022-12-07T01:10:45;6.10;99.90
41922;DHT22;27609;51.002;5.354;2022-12-07T01:13:10;6.20;99.90
41922;DHT22;27609;51.002;5.354;2022-12-07T01:15:40;6.00;99.90
41922;DHT22;27609;51.002;5.354;2022-12-07T01:18:06;6.10;99.90
41922;DHT22;27609;51.002;5.354;2022-12-07T01:20:31;6.00;99.90
41922;DHT22;27609;51.002;5.354;2022-12-07T01:22:57;5.80;99.90
41922;DHT22;27609;51.002;5.354;2022-12-07T01:25:22;5.90;99.90
41922;DHT22;27609;51.002;5.354;2022-12-07T01:27:49;5.80;99.90
41922;DHT22;27609;51.002;5.354;2022-12-07T01:30:15;6.00;99.90
41922;DHT22;27609;51.002;5.354;2022-12-07T01:32:41;5.70;99.90
41922;DHT22;27609;51.002;5.354;2022-12-07T01:35:06;5.60;99.90
41922;DHT22;27609;51.002;5.354;2022-12-07T01:37:36;5.70;99.90
41922;DHT22;27609;51.002;5.354;2022-12-07T01:40:04;5.80;99.90
41922;DHT22;27609;51.002;5.354;2022-12-07T01:42:29;5.80;99.90
41922;DHT22;27609;51.002;5.354;2022-12-07T01:47:45;5.80;99.90
41922;DHT22;27609;51.002;5.354;2022-12-07T01:50:12;6.20;99.90
41922;DHT22;27609;51.002;5.354;2022-12-07T01:52:39;5.80;99.90
41922;DHT22;27609;51.002;5.354;2022-12-07T01:55:09;5.90;99.90
41922;DHT22;27609;51.002;5.354;2022-12-07T01:57:41;5.80;99.90
41922;DHT22;27609;51.002;5.354;2022-12-07T02:00:08;5.70;99.90
41922;DHT22;27609;51.002;5.354;2022-12-07T02:02:38;5.80;99.90
41922;DHT22;27609;51.002;5.354;2022-12-07T02:05:06;5.90;99.90
41922;DHT22;27609;51.002;5.354;2022-12-07T02:07:34;5.80;99.90
41922;DHT22;27609;51.002;5.354;2022-12-07T02:10:18;5.70;99.90
41922;DHT22;27609;51.002;5.354;2022-12-07T02:12:50;5.60;99.90
41922;DHT22;27609;51.002;5.354;2022-12-07T02:15:19;5.70;99.90
41922;DHT22;27609;51.002;5.354;2022-12-07T02:18:01;5.60;99.90
41922;DHT22;27609;51.002;5.354;2022-12-07T02:21:03;5.60;99.90
41922;DHT22;27609;51.002;5.354;2022-12-07T02:31:42;5.60;99.90
41922;DHT22;27609;51.002;5.354;2022-12-07T02:34:31;5.60;99.90
41922;DHT22;27609;51.002;5.354;2022-12-07T02:37:02;5.50;99.90
41922;DHT22;27609;51.002;5.354;2022-12-07T02:39:36;5.60;99.90
41922;DHT22;27609;51.002;5.354;2022-12-07T02:42:12;5.60;99.90
41922;DHT22;27609;51.002;5.354;2022-12-07T02:44:40;5.70;99.90
41922;DHT22;27609;51.002;5.354;2022-12-07T02:47:09;5.70;99.90
41922;DHT22;27609;51.002;5.354;2022-12-07T02:49:37;6.30;99.90
41922;DHT22;27609;51.002;5.354;2022-12-07T02:52:04;5.80;99.90
41922;DHT22;27609;51.002;5.354;2022-12-07T02:54:29;5.90;99.90
41922;DHT22;27609;51.002;5.354;2022-12-07T03:05:02;5.60;99.90
41922;DHT22;27609;51.002;5.354;2022-12-07T03:08:01;5.50;99.90
41922;DHT22;27609;51.002;5.354;2022-12-07T03:12:59;5.80;99.90
41922;DHT22;27609;51.002;5.354;2022-12-07T03:15:33;5.80;99.90
41922;DHT22;27609;51.002;5.354;2022-12-07T03:18:02;6.10;99.90
41922;DHT22;27609;51.002;5.354;2022-12-07T03:20:30;5.90;99.90
41922;DHT22;27609;51.002;5.354;2022-12-07T03:22:58;5.90;99.90
41922;DHT22;27609;51.002;5.354;2022-12-07T03:25:26;5.90;99.90
41922;DHT22;27609;51.002;5.354;2022-12-07T03:27:56;6.20;99.90
41922;DHT22;27609;51.002;5.354;2022-12-07T03:30:27;6.10;99.90
41922;DHT22;27609;51.002;5.354;2022-12-07T03:33:06;6.30;99.90
41922;DHT22;27609;51.002;5.354;2022-12-07T03:35:57;6.70;99.90
41922;DHT22;27609;51.002;5.354;2022-12-07T03:38:39;6.10;99.90
41922;DHT22;27609;51.002;5.354;2022-12-07T03:41:25;6.10;99.90
41922;DHT22;27609;51.002;5.354;2022-12-07T03:43:53;6.20;99.90
41922;DHT22;27609;51.002;5.354;2022-12-07T03:49:12;6.30;99.90
41922;DHT22;27609;51.002;5.354;2022-12-07T03:54:21;6.00;99.90
41922;DHT22;27609;51.002;5.354;2022-12-07T03:56:49;6.20;99.90
41922;DHT22;27609;51.002;5.354;2022-12-07T03:59:16;6.10;99.90
41922;DHT22;27609;51.002;5.354;2022-12-07T04:01:50;6.00;99.90
41922;DHT22;27609;51.002;5.354;2022-12-07T04:04:17;5.90;99.90
41922;DHT22;27609;51.002;5.354;2022-12-07T04:06:43;5.80;99.90
41922;DHT22;27609;51.002;5.354;2022-12-07T04:09:08;6.00;99.90
41922;DHT22;27609;51.002;5.354;2022-12-07T04:11:34;5.50;99.90
41922;DHT22;27609;51.002;5.354;2022-12-07T04:14:00;5.50;99.90
41922;DHT22;27609;51.002;5.354;2022-12-07T04:16:47;5.30;99.90
41922;DHT22;27609;51.002;5.354;2022-12-07T04:19:14;5.60;99.90
41922;DHT22;27609;51.002;5.354;2022-12-07T04:21:40;5.30;99.90
41922;DHT22;27609;51.002;5.354;2022-12-07T04:24:05;5.30;99.90
41922;DHT22;27609;51.002;5.354;2022-12-07T04:26:31;5.20;99.90
41922;DHT22;27609;51.002;5.354;2022-12-07T04:28:57;5.40;99.90
41922;DHT22;27609;51.002;5.354;2022-12-07T04:31:23;5.40;99.90
41922;DHT22;27609;51.002;5.354;2022-12-07T04:33:48;4.70;99.90
41922;DHT22;27609;51.002;5.354;2022-12-07T04:36:14;5.70;99.90
41922;DHT22;27609;51.002;5.354;2022-12-07T04:38:40;5.40;99.90
41922;DHT22;27609;51.002;5.354;2022-12-07T04:41:07;5.50;99.90
41922;DHT22;27609;51.002;5.354;2022-12-07T04:43:33;6.00;99.90
41922;DHT22;27609;51.002;5.354;2022-12-07T04:45:59;5.50;99.90
41922;DHT22;27609;51.002;5.354;2022-12-07T04:48:24;5.50;99.90
41922;DHT22;27609;51.002;5.354;2022-12-07T04:50:50;5.40;99.90
41922;DHT22;27609;51.002;5.354;2022-12-07T04:53:16;5.90;99.90
41922;DHT22;27609;51.002;5.354;2022-12-07T04:55:41;5.40;99.90
41922;DHT22;27609;51.002;5.354;2022-12-07T04:58:07;5.20;99.90
41922;DHT22;27609;51.002;5.354;2022-12-07T05:00:33;5.00;99.90
41922;DHT22;27609;51.002;5.354;2022-12-07T05:02:58;5.50;99.90
41922;DHT22;27609;51.002;5.354;2022-12-07T05:05:24;5.60;99.90
41922;DHT22;27609;51.002;5.354;2022-12-07T05:07:50;5.40;99.90
41922;DHT22;27609;51.002;5.354;2022-12-07T05:10:16;5.00;99.90
41922;DHT22;27609;51.002;5.354;2022-12-07T05:12:42;5.00;99.90
41922;DHT22;27609;51.002;5.354;2022-12-07T05:15:08;5.10;99.90
41922;DHT22;27609;51.002;5.354;2022-12-07T05:17:33;5.10;99.90
41922;DHT22;27609;51.002;5.354;2022-12-07T05:19:59;5.20;99.90
41922;DHT22;27609;51.002;5.354;2022-12-07T05:22:25;5.30;99.90
41922;DHT22;27609;51.002;5.354;2022-12-07T05:24:54;5.30;99.90
41922;DHT22;27609;51.002;5.354;2022-12-07T05:27:20;5.50;99.90
41922;DHT22;27609;51.002;5.354;2022-12-07T05:29:45;5.40;99.90
41922;DHT22;27609;51.002;5.354;2022-12-07T05:32:11;5.10;99.90
41922;DHT22;27609;51.002;5.354;2022-12-07T05:34:37;5.10;99.90
41922;DHT22;27609;51.002;5.354;2022-12-07T05:37:03;5.30;99.90
41922;DHT22;27609;51.002;5.354;2022-12-07T05:39:29;5.80;99.90
41922;DHT22;27609;51.002;5.354;2022-12-07T05:41:54;5.20;99.90
41922;DHT22;27609;51.002;5.354;2022-12-07T05:44:39;5.40;99.90
41922;DHT22;27609;51.002;5.354;2022-12-07T05:47:04;5.40;99.90
41922;DHT22;27609;51.002;5.354;2022-12-07T05:49:30;5.50;99.90
41922;DHT22;27609;51.002;5.354;2022-12-07T05:51:56;5.40;99.90
41922;DHT22;27609;51.002;5.354;2022-12-07T05:54:22;5.70;99.90
41922;DHT22;27609;51.002;5.354;2022-12-07T05:56:48;5.00;99.90
41922;DHT22;27609;51.002;5.354;2022-12-07T05:59:13;5.10;99.90
41922;DHT22;27609;51.002;5.354;2022-12-07T06:02:09;5.10;99.90
41922;DHT22;27609;51.002;5.354;2022-12-07T06:04:37;5.20;99.90
41922;DHT22;27609;51.002;5.354;2022-12-07T06:07:04;5.30;99.90
41922;DHT22;27609;51.002;5.354;2022-12-07T06:09:30;5.40;99.90
41922;DHT22;27609;51.002;5.354;2022-12-07T06:11:57;5.70;99.90
41922;DHT22;27609;51.002;5.354;2022-12-07T06:14:41;5.40;99.90
41922;DHT22;27609;51.002;5.354;2022-12-07T06:17:07;5.40;99.90
41922;DHT22;27609;51.002;5.354;2022-12-07T06:19:33;5.50;99.90
41922;DHT22;27609;51.002;5.354;2022-12-07T06:21:59;5.50;99.90
41922;DHT22;27609;51.002;5.354;2022-12-07T06:24:25;5.20;99.90
41922;DHT22;27609;51.002;5.354;2022-12-07T06:26:50;5.30;99.90
41922;DHT22;27609;51.002;5.354;2022-12-07T06:29:17;5.00;99.90
41922;DHT22;27609;51.002;5.354;2022-12-07T06:31:43;4.90;99.90
41922;DHT22;27609;51.002;5.354;2022-12-07T06:34:17;4.80;99.90
41922;DHT22;27609;51.002;5.354;2022-12-07T06:36:43;4.80;99.90
41922;DHT22;27609;51.002;5.354;2022-12-07T06:39:09;4.80;99.90
41922;DHT22;27609;51.002;5.354;2022-12-07T06:41:38;5.30;99.90
41922;DHT22;27609;51.002;5.354;2022-12-07T06:44:05;4.80;99.90
41922;DHT22;27609;51.002;5.354;2022-12-07T06:46:31;4.90;99.90
41922;DHT22;27609;51.002;5.354;2022-12-07T06:48:57;4.90;99.90
41922;DHT22;27609;51.002;5.354;2022-12-07T06:51:22;5.60;99.90
41922;DHT22;27609;51.002;5.354;2022-12-07T06:53:48;5.10;99.90
41922;DHT22;27609;51.002;5.354;2022-12-07T06:56:14;5.10;99.90
41922;DHT22;27609;51.002;5.354;2022-12-07T06:58:40;5.20;99.90
41922;DHT22;27609;51.002;5.354;2022-12-07T07:01:14;5.90;99.90
41922;DHT22;27609;51.002;5.354;2022-12-07T07:03:40;5.20;99.90
41922;DHT22;27609;51.002;5.354;2022-12-07T07:06:09;5.00;99.90
41922;DHT22;27609;51.002;5.354;2022-12-07T07:08:36;5.40;99.90
41922;DHT22;27609;51.002;5.354;2022-12-07T07:11:03;5.20;99.90
41922;DHT22;27609;51.002;5.354;2022-12-07T07:13:29;5.00;99.90
41922;DHT22;27609;51.002;5.354;2022-12-07T07:15:54;4.80;99.90
41922;DHT22;27609;51.002;5.354;2022-12-07T07:18:20;4.80;99.90
41922;DHT22;27609;51.002;5.354;2022-12-07T07:20:46;5.00;99.90
41922;DHT22;27609;51.002;5.354;2022-12-07T07:23:12;4.70;99.90
41922;DHT22;27609;51.002;5.354;2022-12-07T07:25:38;4.40;99.90
41922;DHT22;27609;51.002;5.354;2022-12-07T07:28:04;4.50;99.90
41922;DHT22;27609;51.002;5.354;2022-12-07T07:30:30;4.40;99.90
41922;DHT22;27609;51.002;5.354;2022-12-07T07:33:00;4.60;99.90
41922;DHT22;27609;51.002;5.354;2022-12-07T07:35:27;4.30;99.90
41922;DHT22;27609;51.002;5.354;2022-12-07T07:37:53;4.60;99.90
41922;DHT22;27609;51.002;5.354;2022-12-07T07:40:18;4.20;99.90
41922;DHT22;27609;51.002;5.354;2022-12-07T07:42:47;4.80;99.90
41922;DHT22;27609;51.002;5.354;2022-12-07T07:45:14;4.40;99.90
41922;DHT22;27609;51.002;5.354;2022-12-07T07:47:39;4.10;99.90
41922;DHT22;27609;51.002;5.354;2022-12-07T07:50:05;4.10;99.90
41922;DHT22;27609;51.002;5.354;2022-12-07T07:52:31;4.00;99.90
41922;DHT22;27609;51.002;5.354;2022-12-07T07:54:57;3.90;99.90
41922;DHT22;27609;51.002;5.354;2022-12-07T07:57:23;3.80;99.90
41922;DHT22;27609;51.002;5.354;2022-12-07T07:59:48;4.00;99.90
41922;DHT22;27609;51.002;5.354;2022-12-07T08:02:19;4.30;99.90
41922;DHT22;27609;51.002;5.354;2022-12-07T08:04:45;3.80;99.90
41922;DHT22;27609;51.002;5.354;2022-12-07T08:07:11;4.00;99.90
41922;DHT22;27609;51.002;5.354;2022-12-07T08:09:40;4.40;99.90
41922;DHT22;27609;51.002;5.354;2022-12-07T08:12:06;4.40;99.90
41922;DHT22;27609;51.002;5.354;2022-12-07T08:14:31;4.60;99.90
41922;DHT22;27609;51.002;5.354;2022-12-07T08:16:57;5.00;99.90
41922;DHT22;27609;51.002;5.354;2022-12-07T08:19:23;5.00;99.90
41922;DHT22;27609;51.002;5.354;2022-12-07T08:21:48;5.50;99.90
41922;DHT22;27609;51.002;5.354;2022-12-07T08:24:14;5.20;99.90
41922;DHT22;27609;51.002;5.354;2022-12-07T08:26:40;5.40;99.90
41922;DHT22;27609;51.002;5.354;2022-12-07T08:29:06;5.20;99.90
41922;DHT22;27609;51.002;5.354;2022-12-07T08:31:32;4.70;99.90
41922;DHT22;27609;51.002;5.354;2022-12-07T08:33:58;5.40;99.90
41922;DHT22;27609;51.002;5.354;2022-12-07T08:36:23;4.70;99.90
41922;DHT22;27609;51.002;5.354;2022-12-07T08:38:50;5.40;99.90
41922;DHT22;27609;51.002;5.354;2022-12-07T08:41:16;5.30;99.90
41922;DHT22;27609;51.002;5.354;2022-12-07T08:43:42;5.30;99.90
41922;DHT22;27609;51.002;5.354;2022-12-07T08:46:27;5.80;99.90
41922;DHT22;27609;51.002;5.354;2022-12-07T08:49:00;5.50;99.90
41922;DHT22;27609;51.002;5.354;2022-12-07T08:51:27;5.70;99.90
41922;DHT22;27609;51.002;5.354;2022-12-07T08:53:54;5.90;99.90
41922;DHT22;27609;51.002;5.354;2022-12-07T08:56:20;5.20;99.90
41922;DHT22;27609;51.002;5.354;2022-12-07T08:58:47;4.90;99.90
41922;DHT22;27609;51.002;5.354;2022-12-07T09:01:13;5.10;99.90
41922;DHT22;27609;51.002;5.354;2022-12-07T09:03:39;5.30;99.90
41922;DHT22;27609;51.002;5.354;2022-12-07T09:06:05;5.70;99.90
41922;DHT22;27609;51.002;5.354;2022-12-07T09:08:36;5.70;99.90
41922;DHT22;27609;51.002;5.354;2022-12-07T09:11:04;6.10;99.90
41922;DHT22;27609;51.002;5.354;2022-12-07T09:13:30;6.70;99.90
41922;DHT22;27609;51.002;5.354;2022-12-07T09:15:56;6.60;99.90
41922;DHT22;27609;51.002;5.354;2022-12-07T09:18:21;7.00;99.90
41922;DHT22;27609;51.002;5.354;2022-12-07T09:20:47;7.20;99.90
41922;DHT22;27609;51.002;5.354;2022-12-07T09:23:13;7.80;99.90
41922;DHT22;27609;51.002;5.354;2022-12-07T09:25:38;8.10;99.90
41922;DHT22;27609;51.002;5.354;2022-12-07T09:28:04;8.90;99.90
41922;DHT22;27609;51.002;5.354;2022-12-07T09:30:30;9.10;99.90
41922;DHT22;27609;51.002;5.354;2022-12-07T09:32:56;8.90;99.90
41922;DHT22;27609;51.002;5.354;2022-12-07T09:35:23;8.60;99.90
41922;DHT22;27609;51.002;5.354;2022-12-07T09:37:50;8.40;99.90
41922;DHT22;27609;51.002;5.354;2022-12-07T09:40:17;8.40;99.90
41922;DHT22;27609;51.002;5.354;2022-12-07T09:42:47;8.70;99.90
41922;DHT22;27609;51.002;5.354;2022-12-07T09:45:40;9.90;99.90
41922;DHT22;27609;51.002;5.354;2022-12-07T09:48:18;9.60;99.90
41922;DHT22;27609;51.002;5.354;2022-12-07T09:50:46;9.10;99.90
41922;DHT22;27609;51.002;5.354;2022-12-07T09:55:45;8.70;99.90
41922;DHT22;27609;51.002;5.354;2022-12-07T09:58:22;8.60;99.90
41922;DHT22;27609;51.002;5.354;2022-12-07T10:01:05;9.00;99.90
41922;DHT22;27609;51.002;5.354;2022-12-07T10:03:37;9.80;99.90
41922;DHT22;27609;51.002;5.354;2022-12-07T10:06:04;11.50;99.90
41922;DHT22;27609;51.002;5.354;2022-12-07T10:08:31;12.70;99.90
41922;DHT22;27609;51.002;5.354;2022-12-07T10:10:57;13.40;99.90
41922;DHT22;27609;51.002;5.354;2022-12-07T10:13:42;13.30;99.90
41922;DHT22;27609;51.002;5.354;2022-12-07T10:16:40;12.80;99.90
41922;DHT22;27609;51.002;5.354;2022-12-07T10:19:23;12.60;99.90
41922;DHT22;27609;51.002;5.354;2022-12-07T10:22:00;12.80;99.90
41922;DHT22;27609;51.002;5.354;2022-12-07T10:24:26;11.80;99.90
41922;DHT22;27609;51.002;5.354;2022-12-07T10:26:52;11.30;99.90
41922;DHT22;27609;51.002;5.354;2022-12-07T10:29:32;10.90;99.90
41922;DHT22;27609;51.002;5.354;2022-12-07T10:31:59;10.50;99.90
41922;DHT22;27609;51.002;5.354;2022-12-07T10:34:36;10.10;99.90
41922;DHT22;27609;51.002;5.354;2022-12-07T10:37:16;10.10;99.90
41922;DHT22;27609;51.002;5.354;2022-12-07T10:39:52;10.40;99.90
41922;DHT22;27609;51.002;5.354;2022-12-07T10:42:29;11.00;99.90
41922;DHT22;27609;51.002;5.354;2022-12-07T10:45:24;10.40;99.90
41922;DHT22;27609;51.002;5.354;2022-12-07T10:48:15;11.30;99.90
41922;DHT22;27609;51.002;5.354;2022-12-07T10:51:14;12.90;99.90
41922;DHT22;27609;51.002;5.354;2022-12-07T10:54:26;14.00;99.90
41922;DHT22;27609;51.002;5.354;2022-12-07T10:57:23;13.80;99.90
41922;DHT22;27609;51.002;5.354;2022-12-07T11:00:23;12.80;99.90
41922;DHT22;27609;51.002;5.354;2022-12-07T11:08:47;11.80;99.90
41922;DHT22;27609;51.002;5.354;2022-12-07T11:11:36;11.20;99.90
41922;DHT22;27609;51.002;5.354;2022-12-07T11:14:18;11.50;99.90
41922;DHT22;27609;51.002;5.354;2022-12-07T11:30:07;11.70;99.90
41922;DHT22;27609;51.002;5.354;2022-12-07T11:38:23;10.60;99.90
41922;DHT22;27609;51.002;5.354;2022-12-07T11:40:54;10.10;99.90
41922;DHT22;27609;51.002;5.354;2022-12-07T11:48:28;10.30;99.90
41922;DHT22;27609;51.002;5.354;2022-12-07T11:50:58;10.70;99.90
41922;DHT22;27609;51.002;5.354;2022-12-07T11:53:37;10.80;99.90
41922;DHT22;27609;51.002;5.354;2022-12-07T12:06:43;10.00;99.90
41922;DHT22;27609;51.002;5.354;2022-12-07T12:12:01;10.20;99.90
41922;DHT22;27609;51.002;5.354;2022-12-07T12:15:15;10.20;99.90
41922;DHT22;27609;51.002;5.354;2022-12-07T12:25:49;9.70;99.90
41922;DHT22;27609;51.002;5.354;2022-12-07T12:31:33;9.30;99.90
41922;DHT22;27609;51.002;5.354;2022-12-07T12:34:03;9.50;99.90
41922;DHT22;27609;51.002;5.354;2022-12-07T12:47:02;9.00;99.90
41922;DHT22;27609;51.002;5.354;2022-12-07T12:49:40;9.40;99.90
41922;DHT22;27609;51.002;5.354;2022-12-07T12:54:37;9.50;99.90
41922;DHT22;27609;51.002;5.354;2022-12-07T12:57:21;9.60;99.90
41922;DHT22;27609;51.002;5.354;2022-12-07T12:59:56;9.40;99.90
41922;DHT22;27609;51.002;5.354;2022-12-07T13:02:47;9.60;99.90
41922;DHT22;27609;51.002;5.354;2022-12-07T13:13:01;9.80;99.90
41922;DHT22;27609;51.002;5.354;2022-12-07T13:20:58;10.00;99.90
41922;DHT22;27609;51.002;5.354;2022-12-07T13:23:37;9.70;99.90
41922;DHT22;27609;51.002;5.354;2022-12-07T13:28:41;9.10;99.90
41922;DHT22;27609;51.002;5.354;2022-12-07T13:31:14;9.20;99.90
41922;DHT22;27609;51.002;5.354;2022-12-07T13:33:46;9.20;99.90
41922;DHT22;27609;51.002;5.354;2022-12-07T13:36:14;9.20;99.90
41922;DHT22;27609;51.002;5.354;2022-12-07T13:39:32;9.00;99.90
41922;DHT22;27609;51.002;5.354;2022-12-07T13:41:42;8.70;99.90
41922;DHT22;27609;51.002;5.354;2022-12-07T13:44:17;9.10;99.90
41922;DHT22;27609;51.002;5.354;2022-12-07T13:49:26;8.30;99.90
41922;DHT22;27609;51.002;5.354;2022-12-07T13:51:53;8.30;99.90
41922;DHT22;27609;51.002;5.354;2022-12-07T13:54:19;8.10;99.90
41922;DHT22;27609;51.002;5.354;2022-12-07T13:56:50;7.90;99.90
41922;DHT22;27609;51.002;5.354;2022-12-07T13:59:25;7.90;99.90
41922;DHT22;27609;51.002;5.354;2022-12-07T14:01:52;8.00;99.90
41922;DHT22;27609;51.002;5.354;2022-12-07T14:06:52;8.00;99.90
41922;DHT22;27609;51.002;5.354;2022-12-07T14:09:27;8.20;99.90
41922;DHT22;27609;51.002;5.354;2022-12-07T14:11:55;8.30;99.90
41922;DHT22;27609;51.002;5.354;2022-12-07T14:14:27;8.40;99.90
41922;DHT22;27609;51.002;5.354;2022-12-07T14:17:13;8.60;99.90
41922;DHT22;27609;51.002;5.354;2022-12-07T14:19:46;8.70;99.90
41922;DHT22;27609;51.002;5.354;2022-12-07T14:25:24;8.90;99.90
41922;DHT22;27609;51.002;5.354;2022-12-07T14:27:58;8.90;99.90
41922;DHT22;27609;51.002;5.354;2022-12-07T14:30:29;8.80;99.90
41922;DHT22;27609;51.002;5.354;2022-12-07T14:33:05;8.60;99.90
41922;DHT22;27609;51.002;5.354;2022-12-07T14:35:31;8.50;99.90
41922;DHT22;27609;51.002;5.354;2022-12-07T14:37:58;8.40;99.90
41922;DHT22;27609;51.002;5.354;2022-12-07T14:40:28;8.30;99.90
41922;DHT22;27609;51.002;5.354;2022-12-07T14:43:04;8.30;99.90
41922;DHT22;27609;51.002;5.354;2022-12-07T14:45:30;8.30;99.90
41922;DHT22;27609;51.002;5.354;2022-12-07T14:47:56;8.10;99.90
41922;DHT22;27609;51.002;5.354;2022-12-07T14:50:22;8.00;99.90
41922;DHT22;27609;51.002;5.354;2022-12-07T14:52:55;7.90;99.90
41922;DHT22;27609;51.002;5.354;2022-12-07T14:55:25;7.70;99.90
41922;DHT22;27609;51.002;5.354;2022-12-07T14:57:52;8.00;99.90
41922;DHT22;27609;51.002;5.354;2022-12-07T15:00:18;7.60;99.90
41922;DHT22;27609;51.002;5.354;2022-12-07T15:02:45;7.70;99.90
41922;DHT22;27609;51.002;5.354;2022-12-07T15:05:11;7.60;99.90
41922;DHT22;27609;51.002;5.354;2022-12-07T15:07:37;8.30;99.90
41922;DHT22;27609;51.002;5.354;2022-12-07T15:10:03;7.80;99.90
41922;DHT22;27609;51.002;5.354;2022-12-07T15:12:29;7.80;99.90
41922;DHT22;27609;51.002;5.354;2022-12-07T15:14:54;7.70;99.90
41922;DHT22;27609;51.002;5.354;2022-12-07T15:17:20;7.60;99.90
41922;DHT22;27609;51.002;5.354;2022-12-07T15:19:46;7.50;99.90
41922;DHT22;27609;51.002;5.354;2022-12-07T15:22:11;7.30;99.90
41922;DHT22;27609;51.002;5.354;2022-12-07T15:24:37;7.20;99.90
41922;DHT22;27609;51.002;5.354;2022-12-07T15:27:03;7.20;99.90
41922;DHT22;27609;51.002;5.354;2022-12-07T15:29:29;7.20;99.90
41922;DHT22;27609;51.002;5.354;2022-12-07T15:31:55;7.80;99.90
41922;DHT22;27609;51.002;5.354;2022-12-07T15:34:21;7.30;99.90
41922;DHT22;27609;51.002;5.354;2022-12-07T15:36:47;7.40;99.90
41922;DHT22;27609;51.002;5.354;2022-12-07T15:39:12;7.50;99.90
41922;DHT22;27609;51.002;5.354;2022-12-07T15:41:38;7.30;99.90
41922;DHT22;27609;51.002;5.354;2022-12-07T15:44:04;7.20;99.90
41922;DHT22;27609;51.002;5.354;2022-12-07T15:46:48;7.30;99.90
41922;DHT22;27609;51.002;5.354;2022-12-07T15:49:16;7.30;99.90
41922;DHT22;27609;51.002;5.354;2022-12-07T15:51:42;7.20;99.90
41922;DHT22;27609;51.002;5.354;2022-12-07T15:54:19;7.30;99.90
41922;DHT22;27609;51.002;5.354;2022-12-07T15:56:45;7.30;99.90
41922;DHT22;27609;51.002;5.354;2022-12-07T15:59:11;7.40;99.90
41922;DHT22;27609;51.002;5.354;2022-12-07T16:01:37;7.20;99.90
41922;DHT22;27609;51.002;5.354;2022-12-07T16:04:02;6.80;99.90
41922;DHT22;27609;51.002;5.354;2022-12-07T16:06:28;6.80;99.90
41922;DHT22;27609;51.002;5.354;2022-12-07T16:08:54;6.60;99.90
41922;DHT22;27609;51.002;5.354;2022-12-07T16:11:20;6.50;99.90
41922;DHT22;27609;51.002;5.354;2022-12-07T16:13:46;6.40;99.90
41922;DHT22;27609;51.002;5.354;2022-12-07T16:16:14;6.40;99.90
41922;DHT22;27609;51.002;5.354;2022-12-07T16:18:41;6.40;99.90
41922;DHT22;27609;51.002;5.354;2022-12-07T16:21:07;6.80;99.90
41922;DHT22;27609;51.002;5.354;2022-12-07T16:23:33;6.10;99.90
41922;DHT22;27609;51.002;5.354;2022-12-07T16:26:11;6.20;99.90
41922;DHT22;27609;51.002;5.354;2022-12-07T16:28:37;6.20;99.90
41922;DHT22;27609;51.002;5.354;2022-12-07T16:31:09;6.50;99.90
41922;DHT22;27609;51.002;5.354;2022-12-07T16:33:37;6.20;99.90
41922;DHT22;27609;51.002;5.354;2022-12-07T16:36:04;6.20;99.90
41922;DHT22;27609;51.002;5.354;2022-12-07T16:38:30;6.20;99.90
41922;DHT22;27609;51.002;5.354;2022-12-07T16:40:56;6.80;99.90
41922;DHT22;27609;51.002;5.354;2022-12-07T16:43:21;6.90;99.90
41922;DHT22;27609;51.002;5.354;2022-12-07T16:45:47;6.30;99.90
41922;DHT22;27609;51.002;5.354;2022-12-07T16:48:17;6.20;99.90
41922;DHT22;27609;51.002;5.354;2022-12-07T16:50:43;6.50;99.90
41922;DHT22;27609;51.002;5.354;2022-12-07T16:53:11;6.10;99.90
41922;DHT22;27609;51.002;5.354;2022-12-07T16:55:39;6.20;99.90
41922;DHT22;27609;51.002;5.354;2022-12-07T16:58:06;6.50;99.90
41922;DHT22;27609;51.002;5.354;2022-12-07T17:00:32;6.10;99.90
41922;DHT22;27609;51.002;5.354;2022-12-07T17:02:58;6.10;99.90
41922;DHT22;27609;51.002;5.354;2022-12-07T17:05:23;6.10;99.90
41922;DHT22;27609;51.002;5.354;2022-12-07T17:07:50;6.20;99.90
41922;DHT22;27609;51.002;5.354;2022-12-07T17:10:16;6.50;99.90
41922;DHT22;27609;51.002;5.354;2022-12-07T17:12:42;6.30;99.90
41922;DHT22;27609;51.002;5.354;2022-12-07T17:15:08;6.60;99.90
41922;DHT22;27609;51.002;5.354;2022-12-07T17:17:56;6.20;99.90
41922;DHT22;27609;51.002;5.354;2022-12-07T17:20:24;6.20;99.90
41922;DHT22;27609;51.002;5.354;2022-12-07T17:22:50;6.20;99.90
41922;DHT22;27609;51.002;5.354;2022-12-07T17:25:16;6.20;99.90
41922;DHT22;27609;51.002;5.354;2022-12-07T17:27:43;6.10;99.90
41922;DHT22;27609;51.002;5.354;2022-12-07T17:30:10;6.10;99.90
41922;DHT22;27609;51.002;5.354;2022-12-07T17:32:36;5.90;99.90
41922;DHT22;27609;51.002;5.354;2022-12-07T17:35:02;5.80;99.90
41922;DHT22;27609;51.002;5.354;2022-12-07T17:37:30;5.80;99.90
41922;DHT22;27609;51.002;5.354;2022-12-07T17:39:56;5.80;99.90
41922;DHT22;27609;51.002;5.354;2022-12-07T17:42:23;5.80;99.90
41922;DHT22;27609;51.002;5.354;2022-12-07T17:45:03;6.00;99.90
41922;DHT22;27609;51.002;5.354;2022-12-07T17:47:29;6.10;99.90
41922;DHT22;27609;51.002;5.354;2022-12-07T17:49:55;6.10;99.90
41922;DHT22;27609;51.002;5.354;2022-12-07T17:52:20;6.20;99.90
41922;DHT22;27609;51.002;5.354;2022-12-07T17:55:05;6.20;99.90
41922;DHT22;27609;51.002;5.354;2022-12-07T17:57:31;6.20;99.90
41922;DHT22;27609;51.002;5.354;2022-12-07T17:59:57;6.20;99.90
41922;DHT22;27609;51.002;5.354;2022-12-07T18:02:22;6.30;99.90